createdAt,value
2023-04-11T00:01:23.898Z,16.73
2023-04-11T00:04:26.381Z,16.79
2023-04-11T00:07:28.670Z,16.86
2023-04-11T00:10:32.155Z,16.81
2023-04-11T00:13:34.346Z,16.76
2023-04-11T00:16:37.215Z,16.83
2023-04-11T00:19:39.828Z,16.79
2023-04-11T00:22:43.779Z,16.73
2023-04-11T00:25:45.815Z,16.70
2023-04-11T00:28:48.639Z,16.78
2023-04-11T00:31:51.567Z,16.72
2023-04-11T00:34:55.491Z,16.60
2023-04-11T00:37:58.851Z,16.66
2023-04-11T00:41:02.681Z,16.55
2023-04-11T00:44:04.970Z,16.61
2023-04-11T00:47:07.579Z,16.63
2023-04-11T00:50:10.525Z,16.58
2023-04-11T00:53:13.340Z,16.52
2023-04-11T00:56:15.786Z,16.58
2023-04-11T00:59:19.373Z,16.52
2023-04-11T01:02:22.003Z,16.47
2023-04-11T01:05:24.527Z,16.51
2023-04-11T01:08:27.334Z,16.53
2023-04-11T01:11:32.693Z,16.46
2023-04-11T01:14:35.201Z,16.60
2023-04-11T01:17:37.535Z,16.53
2023-04-11T01:20:39.829Z,16.52
2023-04-11T01:23:42.449Z,16.47
2023-04-11T01:26:44.929Z,16.48
2023-04-11T01:29:48.024Z,16.47
2023-04-11T01:32:50.988Z,16.57
2023-04-11T01:35:53.235Z,16.51
2023-04-11T01:38:56.429Z,16.42
2023-04-11T01:42:01.215Z,16.55
2023-04-11T01:45:07.278Z,16.52
2023-04-11T01:48:09.797Z,16.45
2023-04-11T01:51:12.394Z,16.47
2023-04-11T01:54:14.476Z,16.48
2023-04-11T01:57:16.727Z,16.49
2023-04-11T02:00:19.888Z,16.53
2023-04-11T02:03:23.614Z,16.40
2023-04-11T02:06:27.704Z,16.39
2023-04-11T02:09:29.877Z,16.48
2023-04-11T02:12:32.069Z,16.50
2023-04-11T02:15:34.199Z,16.45
2023-04-11T02:18:37.128Z,16.48
2023-04-11T02:21:39.964Z,16.48
2023-04-11T02:24:42.553Z,16.45
2023-04-11T02:27:44.765Z,16.44
2023-04-11T02:30:47.257Z,16.47
2023-04-11T02:33:49.391Z,16.41
2023-04-11T02:36:54.574Z,16.47
2023-04-11T02:39:57.861Z,16.42
2023-04-11T02:43:01.399Z,16.40
2023-04-11T02:46:12.531Z,16.48
2023-04-11T02:49:19.785Z,16.46
2023-04-11T02:52:22.893Z,16.41
2023-04-11T02:55:25.171Z,16.32
2023-04-11T02:58:29.087Z,16.41
2023-04-11T03:01:35.016Z,16.48
2023-04-11T03:04:37.682Z,16.45
2023-04-11T03:07:47.173Z,16.47
2023-04-11T03:10:49.769Z,16.45
2023-04-11T03:13:52.158Z,16.49
2023-04-11T03:16:55.259Z,16.40
2023-04-11T03:19:58.951Z,16.45
2023-04-11T03:23:01.228Z,16.61
2023-04-11T03:26:05.429Z,16.43
2023-04-11T03:29:08.985Z,16.48
2023-04-11T03:32:21.050Z,16.55
2023-04-11T03:35:24.177Z,16.59
2023-04-11T03:38:26.621Z,16.50
2023-04-11T03:41:28.815Z,16.55
2023-04-11T03:44:31.954Z,16.46
2023-04-11T03:47:34.550Z,16.45
2023-04-11T03:50:40.758Z,16.35
2023-04-11T03:53:43.586Z,16.35
2023-04-11T03:57:04.160Z,16.32
2023-04-11T04:00:10.397Z,16.22
2023-04-11T04:03:21.868Z,16.22
2023-04-11T04:06:27.196Z,16.11
2023-04-11T04:09:29.919Z,16.48
2023-04-11T04:12:34.767Z,16.89
2023-04-11T04:15:51.626Z,17.02
2023-04-11T04:18:58.437Z,16.86
2023-04-11T04:22:01.648Z,16.92
2023-04-11T04:25:13.208Z,17.02
2023-04-11T04:28:20.670Z,17.30
2023-04-11T04:31:26.097Z,17.41
2023-04-11T04:34:55.543Z,17.51
2023-04-11T04:38:06.622Z,17.67
2023-04-11T04:41:34.338Z,17.70
2023-04-11T04:44:36.654Z,17.67
2023-04-11T04:47:46.516Z,17.57
2023-04-11T04:50:48.718Z,17.44
2023-04-11T04:53:51.684Z,17.49
2023-04-11T04:56:54.345Z,17.28
2023-04-11T04:59:57.626Z,17.35
2023-04-11T05:03:00.220Z,17.20
2023-04-11T05:06:06.617Z,17.22
2023-04-11T05:09:09.834Z,17.27
2023-04-11T05:12:13.954Z,17.19
2023-04-11T05:15:18.735Z,17.29
2023-04-11T05:18:25.312Z,17.15
2023-04-11T05:21:28.964Z,17.25
2023-04-11T05:24:32.733Z,17.09
2023-04-11T05:27:36.278Z,16.96
2023-04-11T05:30:39.086Z,17.09
2023-04-11T05:33:43.412Z,17.24
2023-04-11T05:36:47.445Z,17.26
2023-04-11T05:39:49.497Z,17.27
2023-04-11T05:42:51.581Z,17.29
2023-04-11T05:45:55.302Z,17.46
2023-04-11T05:49:01.553Z,17.50
2023-04-11T05:52:03.605Z,17.40
2023-04-11T05:55:11.623Z,17.52
2023-04-11T05:58:13.964Z,17.90
2023-04-11T06:01:18.907Z,18.28
2023-04-11T06:04:27.604Z,18.39
2023-04-11T06:07:33.745Z,18.45
2023-04-11T06:10:39.160Z,18.45
2023-04-11T06:13:42.234Z,18.48
2023-04-11T06:16:45.920Z,18.65
2023-04-11T06:19:52.341Z,18.64
2023-04-11T06:23:09.694Z,18.76
2023-04-11T06:26:18.467Z,18.89
2023-04-11T06:29:26.934Z,18.83
2023-04-11T06:32:42.646Z,19.22
2023-04-11T06:35:59.277Z,19.56
2023-04-11T06:39:02.570Z,19.63
2023-04-11T06:42:04.730Z,19.65
2023-04-11T06:45:18.312Z,19.75
2023-04-11T06:48:24.457Z,19.73
2023-04-11T06:51:26.854Z,19.89
2023-04-11T06:54:29.416Z,19.98
2023-04-11T06:57:31.596Z,19.83
2023-04-11T07:00:36.391Z,19.65
2023-04-11T07:03:38.678Z,19.53
2023-04-11T07:06:41.062Z,19.33
2023-04-11T07:09:48.924Z,19.25
2023-04-11T07:12:51.407Z,19.22
2023-04-11T07:15:54.306Z,19.14
2023-04-11T07:18:56.912Z,19.02
2023-04-11T07:22:00.617Z,19.02
2023-04-11T07:25:06.237Z,19.05
2023-04-11T07:28:09.202Z,18.89
2023-04-11T07:31:12.438Z,19.05
2023-04-11T07:34:14.641Z,19.42
2023-04-11T07:37:18.313Z,19.77
2023-04-11T07:40:23.801Z,20.34
2023-04-11T07:43:32.039Z,20.63
2023-04-11T07:46:34.522Z,20.79
2023-04-11T07:49:36.700Z,20.93
2023-04-11T07:52:40.421Z,21.24
2023-04-11T07:55:43.198Z,21.43
2023-04-11T07:58:47.779Z,21.33
2023-04-11T08:02:08.300Z,21.34
2023-04-11T08:05:12.364Z,21.20
2023-04-11T08:08:16.831Z,21.30
2023-04-11T08:11:21.903Z,21.18
2023-04-11T08:14:24.180Z,21.07
2023-04-11T08:17:30.577Z,20.96
2023-04-11T08:20:47.048Z,20.95
2023-04-11T08:23:54.278Z,20.70
2023-04-11T08:26:57.304Z,20.47
2023-04-11T08:29:59.761Z,20.33
2023-04-11T08:33:02.499Z,20.27
2023-04-11T08:36:12.704Z,20.19
2023-04-11T08:39:15.251Z,20.09
2023-04-11T08:42:25.997Z,20.07
2023-04-11T08:45:29.398Z,19.92
2023-04-11T08:48:32.480Z,19.76
2023-04-11T08:52:05.002Z,19.77
2023-04-11T08:55:11.956Z,20.04
2023-04-11T08:58:17.290Z,20.22
2023-04-11T09:01:37.840Z,20.26
2023-04-11T09:04:45.143Z,20.18
2023-04-11T09:07:54.239Z,20.03
2023-04-11T09:11:01.620Z,20.06
2023-04-11T09:14:11.549Z,20.25
2023-04-11T09:17:13.762Z,20.37
2023-04-11T09:20:19.508Z,20.45
2023-04-11T09:23:24.269Z,20.30
2023-04-11T09:26:39.618Z,19.96
2023-04-11T09:29:51.209Z,20.08
2023-04-11T09:32:55.546Z,20.04
2023-04-11T09:36:03.025Z,19.76
2023-04-11T09:39:55.161Z,19.67
2023-04-11T09:43:02.573Z,19.33
2023-04-11T09:46:11.942Z,19.18
2023-04-11T09:49:15.077Z,19.08
2023-04-11T09:52:18.959Z,19.07
2023-04-11T09:55:24.876Z,19.03
2023-04-11T09:58:36.633Z,18.97
2023-04-11T10:01:47.351Z,18.87
2023-04-11T10:05:06.688Z,18.79
2023-04-11T10:08:22.792Z,18.70
2023-04-11T10:11:42.925Z,18.64
2023-04-11T10:14:46.938Z,18.55
2023-04-11T10:18:09.657Z,18.42
2023-04-11T10:21:41.725Z,18.29
2023-04-11T10:25:28.466Z,18.32
2023-04-11T10:28:35.904Z,18.18
2023-04-11T10:32:06.765Z,18.13
2023-04-11T10:38:54.202Z,18.14
2023-04-11T10:42:31.877Z,18.15
2023-04-11T10:45:39.985Z,18.06
2023-04-11T10:53:09.671Z,18.47
2023-04-11T10:56:43.305Z,18.44
2023-04-11T11:00:17.797Z,18.40
2023-04-11T11:03:30.214Z,18.59
2023-04-11T11:06:38.065Z,18.84
2023-04-11T11:09:51.979Z,18.58
2023-04-11T11:12:58.634Z,18.53
2023-04-11T11:17:20.090Z,18.51
2023-04-11T11:20:39.103Z,18.42
2023-04-11T11:24:02.812Z,18.36
2023-04-11T11:27:08.657Z,18.40
2023-04-11T11:30:13.285Z,18.30
2023-04-11T11:33:19.893Z,18.28
2023-04-11T11:36:24.870Z,18.18
2023-04-11T11:39:31.748Z,18.20
2023-04-11T11:42:36.085Z,18.11
2023-04-11T11:46:30.485Z,18.11
2023-04-11T11:51:06.358Z,17.98
2023-04-11T11:54:18.165Z,17.91
2023-04-11T11:57:27.147Z,18.17
2023-04-11T12:18:25.362Z,17.91
2023-04-11T12:21:30.217Z,17.91
2023-04-11T12:25:30.541Z,17.95
2023-04-11T12:28:36.059Z,17.92
2023-04-11T12:31:42.751Z,17.82
2023-04-11T12:34:47.187Z,17.87
2023-04-11T12:37:49.468Z,17.94
2023-04-11T12:44:56.976Z,17.87
2023-04-11T12:47:59.216Z,17.83
2023-04-11T12:51:01.542Z,17.88
2023-04-11T12:55:03.204Z,17.88
2023-04-11T13:10:17.472Z,17.84
2023-04-11T13:53:53.173Z,17.85
2023-04-11T13:58:14.457Z,18.28
2023-04-11T14:27:13.713Z,18.36
2023-04-11T14:30:16.004Z,18.92
2023-04-11T14:41:26.876Z,18.78
2023-04-11T14:54:02.400Z,17.97
2023-04-11T15:03:37.070Z,17.82
2023-04-11T15:06:39.683Z,17.85
2023-04-11T15:09:52.733Z,17.81
2023-04-11T15:26:23.152Z,17.64
2023-04-11T15:43:02.370Z,17.50
2023-04-11T15:46:30.379Z,17.56
2023-04-11T15:49:32.514Z,17.53
2023-04-11T15:52:34.709Z,17.52
2023-04-11T15:55:40.929Z,17.57
2023-04-11T15:58:43.091Z,17.68
2023-04-11T16:01:47.996Z,21.18
2023-04-11T16:10:08.484Z,26.24
2023-04-11T16:24:25.680Z,19.14
2023-04-11T16:33:14.780Z,19.51
2023-04-11T17:06:22.565Z,18.86
2023-04-11T17:30:38.102Z,18.55
2023-04-11T17:34:34.212Z,18.42
2023-04-11T17:38:24.354Z,18.36
2023-04-11T17:42:41.175Z,18.39
2023-04-11T17:46:21.570Z,18.34
2023-04-11T17:49:47.504Z,18.37
2023-04-11T17:52:53.513Z,18.34
2023-04-11T17:55:55.530Z,18.30
2023-04-11T17:58:57.664Z,18.11
2023-04-11T18:02:00.504Z,18.26
2023-04-11T18:05:10.410Z,18.37
2023-04-11T18:08:32.834Z,18.40
2023-04-11T18:11:44.831Z,18.33
2023-04-11T18:14:47.434Z,18.35
2023-04-11T18:17:51.691Z,18.29
2023-04-11T18:21:01.752Z,18.14
2023-04-11T18:24:04.499Z,18.22
2023-04-11T18:27:07.258Z,18.15
2023-04-11T18:30:16.219Z,18.26
2023-04-11T18:33:38.768Z,18.51
2023-04-11T18:36:48.911Z,18.76
2023-04-11T18:39:52.695Z,18.89
2023-04-11T18:42:58.925Z,19.11
2023-04-11T18:46:02.264Z,19.12
2023-04-11T18:49:07.616Z,19.11
2023-04-11T18:53:14.255Z,19.21
2023-04-11T18:56:24.110Z,19.14
2023-04-11T18:59:33.477Z,19.16
2023-04-11T19:02:39.233Z,19.06
2023-04-11T19:05:50.543Z,19.04
2023-04-11T19:08:53.417Z,19.09
2023-04-11T19:12:22.437Z,19.11
2023-04-11T19:15:26.087Z,19.03
2023-04-11T19:18:28.422Z,18.85
2023-04-11T19:21:31.032Z,18.85
2023-04-11T19:25:39.609Z,18.90
2023-04-11T19:33:26.385Z,18.59
2023-04-11T19:36:30.370Z,18.59
2023-04-11T19:39:38.224Z,18.46
2023-04-11T19:42:47.599Z,18.47
2023-04-11T19:45:49.991Z,18.39
2023-04-11T19:48:53.816Z,18.34
2023-04-11T19:51:57.904Z,18.37
2023-04-11T19:55:00.247Z,18.32
2023-04-11T19:58:03.889Z,18.34
2023-04-11T20:01:07.726Z,18.29
2023-04-11T20:04:09.908Z,18.21
2023-04-11T20:07:12.793Z,18.22
2023-04-11T20:10:18.944Z,18.24
2023-04-11T20:13:21.170Z,18.12
2023-04-11T20:16:25.311Z,18.15
2023-04-11T20:19:30.322Z,18.29
2023-04-11T20:22:33.643Z,18.37
2023-04-11T20:25:36.053Z,18.42
2023-04-11T20:28:38.187Z,18.47
2023-04-11T20:31:40.573Z,18.47
2023-04-11T20:34:43.953Z,18.54
2023-04-11T20:37:47.463Z,18.62
2023-04-11T20:40:49.903Z,18.59
2023-04-11T20:43:52.278Z,18.55
2023-04-11T20:46:54.687Z,18.50
2023-04-11T20:49:57.688Z,18.48
2023-04-11T20:53:03.616Z,18.48
2023-04-11T20:56:09.919Z,18.45
2023-04-11T20:59:13.224Z,18.44
2023-04-11T21:02:15.787Z,18.38
2023-04-11T21:05:20.852Z,18.26
2023-04-11T21:08:23.873Z,18.23
2023-04-11T21:11:26.295Z,18.20
2023-04-11T21:14:28.561Z,18.13
2023-04-11T21:17:35.862Z,18.13
2023-04-11T21:20:41.981Z,18.09
2023-04-11T21:23:44.203Z,18.07
2023-04-11T21:26:47.150Z,18.01
2023-04-11T21:29:49.864Z,18.01
2023-04-11T21:32:52.292Z,17.97
2023-04-11T21:35:55.629Z,18.00
2023-04-11T21:38:59.340Z,17.98
2023-04-11T21:42:01.779Z,18.00
2023-04-11T21:45:04.607Z,17.89
2023-04-11T21:48:06.813Z,17.92
2023-04-11T21:51:09.352Z,17.84
2023-04-11T21:54:11.838Z,17.83
2023-04-11T21:57:14.023Z,17.80
2023-04-11T22:00:17.802Z,17.73
2023-04-11T22:03:20.565Z,17.69
2023-04-11T22:06:24.494Z,17.73
2023-04-11T22:09:26.873Z,17.62
2023-04-11T22:12:29.448Z,17.57
2023-04-11T22:15:35.856Z,17.63
2023-04-11T22:18:47.782Z,17.58
2023-04-11T22:21:58.097Z,17.61
2023-04-11T22:25:00.716Z,17.60
2023-04-11T22:28:04.327Z,17.65
2023-04-11T22:31:09.879Z,17.66
2023-04-11T22:34:12.283Z,17.59
2023-04-11T22:37:14.377Z,17.56
2023-04-11T22:40:22.280Z,17.50
2023-04-11T22:43:24.444Z,17.47
2023-04-11T22:46:40.385Z,17.39
2023-04-11T22:49:45.011Z,17.39
2023-04-11T22:52:47.864Z,17.40
2023-04-11T22:55:50.263Z,17.38
2023-04-11T22:58:55.169Z,17.38
2023-04-11T23:01:58.124Z,17.52
2023-04-11T23:05:04.203Z,17.50
2023-04-11T23:08:07.088Z,17.53
2023-04-11T23:11:09.410Z,17.45
2023-04-11T23:14:15.537Z,17.39
2023-04-11T23:17:17.949Z,17.39
2023-04-11T23:20:22.290Z,17.43
2023-04-11T23:23:25.897Z,17.43
2023-04-11T23:26:28.212Z,17.42
2023-04-11T23:29:32.223Z,17.38
2023-04-11T23:32:35.840Z,17.41
2023-04-11T23:35:38.318Z,17.37
2023-04-11T23:38:42.164Z,17.36
2023-04-11T23:41:45.116Z,17.34
2023-04-11T23:44:47.613Z,17.35
2023-04-11T23:47:51.198Z,17.38
2023-04-11T23:50:53.387Z,17.33
2023-04-11T23:53:57.327Z,17.29
2023-04-11T23:56:59.770Z,17.22
